Terminal Aerodrome Forecast
Issued by NWS

Home | Current Version | Previous Version | Text Only | Print | Product List | Glossary On
Versions: 1 2 3 4 5 6 7 8 9 10 11 12 13 14 15 16 17 18 19
000
FTUS43 KTOP 280900 AAA
TAFFOE
TAF AMD
KFOE 280900Z 2809/2906 16010KT P6SM SKC WS020/22030KT
     FM281300 22015G25KT P6SM SCT200
     FM282300 20008KT P6SM SCT200=

USA.gov is the U.S. government's official web portal to all federal, state and local government web resources and services.